createdAt,value
2023-05-01T00:01:40.475Z,98449.84
2023-05-01T00:06:42.462Z,98438.34
2023-05-01T00:11:44.452Z,98438.50
2023-05-01T00:16:46.360Z,98438.16
2023-05-01T00:21:48.458Z,98443.78
2023-05-01T00:26:50.487Z,98457.56
2023-05-01T00:31:52.438Z,98457.38
2023-05-01T00:36:54.385Z,98475.97
2023-05-01T00:41:56.223Z,98467.56
2023-05-01T00:46:58.184Z,98468.44
2023-05-01T00:52:00.148Z,98450.50
2023-05-01T00:57:02.167Z,98434.41
2023-05-01T01:02:04.080Z,98415.88
2023-05-01T01:07:19.518Z,98419.84
2023-05-01T01:12:27.115Z,98429.69
2023-05-01T01:17:47.676Z,98456.47
2023-05-01T01:23:18.644Z,98476.19
2023-05-01T01:28:43.185Z,98470.31
2023-05-01T01:34:19.191Z,98470.78
2023-05-01T01:39:30.200Z,98445.22
2023-05-01T01:44:41.648Z,98418.16
2023-05-01T01:49:47.110Z,98441.50
2023-05-01T01:54:54.492Z,98413.47
2023-05-01T01:59:56.568Z,98408.28
2023-05-01T02:04:58.597Z,98437.38
2023-05-01T02:10:01.114Z,98410.16
2023-05-01T02:15:03.128Z,98395.41
2023-05-01T02:20:06.856Z,98416.25
2023-05-01T02:25:12.898Z,98422.13
2023-05-01T02:30:14.985Z,98402.75
2023-05-01T02:35:16.777Z,98394.19
2023-05-01T02:40:18.722Z,98395.00
2023-05-01T02:45:22.819Z,98424.97
2023-05-01T02:50:24.652Z,98445.69
2023-05-01T02:55:26.801Z,98470.72
2023-05-01T03:00:28.771Z,98474.97
2023-05-01T03:05:30.599Z,98461.06
2023-05-01T03:10:32.454Z,98465.34
2023-05-01T03:15:34.279Z,98457.88
2023-05-01T03:20:36.088Z,98450.03
2023-05-01T03:25:37.949Z,98450.03
2023-05-01T03:30:39.935Z,98458.69
2023-05-01T03:35:41.902Z,98442.78
2023-05-01T03:40:44.289Z,98454.44
2023-05-01T03:45:46.311Z,98455.28
2023-05-01T03:50:48.203Z,98455.81
2023-05-01T03:55:50.162Z,98460.16
2023-05-01T04:00:52.350Z,98468.44
2023-05-01T04:05:54.338Z,98458.66
2023-05-01T04:10:56.195Z,98461.59
2023-05-01T04:15:58.143Z,98455.53
2023-05-01T04:21:00.147Z,98457.31
2023-05-01T04:26:02.036Z,98469.78
2023-05-01T04:31:03.913Z,98465.22
2023-05-01T04:36:06.024Z,98464.41
2023-05-01T04:41:07.940Z,98473.03
2023-05-01T04:46:09.800Z,98482.41
2023-05-01T04:51:11.749Z,98479.16
2023-05-01T04:56:13.620Z,98498.50
2023-05-01T05:01:15.621Z,98505.16
2023-05-01T05:06:17.544Z,98497.25
2023-05-01T05:11:19.547Z,98490.47
2023-05-01T05:16:21.489Z,98489.59
2023-05-01T05:21:23.443Z,98492.91
2023-05-01T05:26:25.482Z,98489.19
2023-05-01T05:31:27.420Z,98498.50
2023-05-01T05:36:29.285Z,98495.47
2023-05-01T05:41:31.112Z,98504.47
2023-05-01T05:46:33.131Z,98500.22
2023-05-01T05:51:35.062Z,98504.41
2023-05-01T05:56:36.978Z,98498.50
2023-05-01T06:01:38.886Z,98504.19
2023-05-01T06:06:40.908Z,98516.13
2023-05-01T06:11:42.892Z,98519.22
2023-05-01T06:16:44.823Z,98523.44
2023-05-01T06:21:46.755Z,98524.91
2023-05-01T06:26:48.674Z,98530.34
2023-05-01T06:31:50.649Z,98544.94
2023-05-01T06:36:52.456Z,98555.88
2023-05-01T06:41:54.330Z,98547.88
2023-05-01T06:46:56.371Z,98543.25
2023-05-01T06:51:58.170Z,98549.38
2023-05-01T06:56:59.992Z,98557.97
2023-05-01T07:02:01.991Z,98570.69
2023-05-01T07:07:03.877Z,98577.06
2023-05-01T07:12:06.292Z,98586.97
2023-05-01T07:17:07.960Z,98591.31
2023-05-01T07:22:09.749Z,98581.41
2023-05-01T07:27:11.621Z,98574.38
2023-05-01T07:32:13.571Z,98557.50
2023-05-01T07:37:15.531Z,98569.66
2023-05-01T07:42:17.396Z,98580.84
2023-05-01T07:47:19.272Z,98585.91
2023-05-01T07:52:20.947Z,98597.16
2023-05-01T07:57:22.753Z,98605.28
2023-05-01T08:02:24.683Z,98609.72
2023-05-01T08:07:26.368Z,98623.44
2023-05-01T08:12:30.950Z,98628.59
2023-05-01T08:17:32.848Z,98646.59
2023-05-01T08:22:34.819Z,98658.63
2023-05-01T08:27:36.759Z,98668.34
2023-05-01T08:32:38.657Z,98673.22
2023-05-01T08:37:40.569Z,98685.66
2023-05-01T08:42:42.386Z,98684.38
2023-05-01T08:47:44.366Z,98699.81
2023-05-01T08:52:46.362Z,98706.41
2023-05-01T08:57:48.614Z,98713.91
2023-05-01T09:02:51.061Z,98709.25
2023-05-01T09:07:53.044Z,98709.38
2023-05-01T09:12:56.554Z,98708.53
2023-05-01T09:18:02.366Z,98728.38
2023-05-01T09:23:05.312Z,98720.03
2023-05-01T09:28:07.243Z,98722.47
2023-05-01T09:33:13.594Z,98726.69
2023-05-01T09:38:22.794Z,98732.78
2023-05-01T09:43:28.372Z,98737.41
2023-05-01T09:48:31.988Z,98745.69
2023-05-01T09:53:38.718Z,98746.63
2023-05-01T09:58:40.707Z,98747.34
2023-05-01T10:03:43.766Z,98744.25
2023-05-01T10:08:49.355Z,98759.72
2023-05-01T10:14:10.072Z,98772.94
2023-05-01T10:19:12.154Z,98797.72
2023-05-01T10:24:14.026Z,98808.84
2023-05-01T10:29:15.944Z,98813.53
2023-05-01T10:34:18.378Z,98829.94
2023-05-01T10:39:32.718Z,98848.75
2023-05-01T10:44:34.602Z,98849.03
2023-05-01T10:50:04.869Z,98864.69
2023-05-01T10:55:34.525Z,98876.78
2023-05-01T11:00:36.329Z,98881.97
2023-05-01T11:06:00.057Z,98894.09
2023-05-01T11:11:20.649Z,98908.69
2023-05-01T11:16:37.803Z,98917.19
2023-05-01T11:21:40.105Z,98921.44
2023-05-01T11:26:42.499Z,98923.16
2023-05-01T11:31:44.552Z,98945.00
2023-05-01T11:36:50.347Z,98948.22
2023-05-01T11:41:52.352Z,98955.81
2023-05-01T11:46:56.572Z,98969.84
2023-05-01T11:51:58.831Z,98976.84
2023-05-01T11:57:00.769Z,98978.03
2023-05-01T12:02:02.701Z,98988.25
2023-05-01T12:07:04.599Z,98999.34
2023-05-01T12:12:06.540Z,99009.31
2023-05-01T12:17:08.525Z,99015.38
2023-05-01T12:22:10.401Z,99025.94
2023-05-01T12:27:12.351Z,99030.78
2023-05-01T12:32:15.006Z,99038.38
2023-05-01T12:37:16.662Z,99034.59
2023-05-01T12:42:18.485Z,99045.22
2023-05-01T12:47:20.380Z,99051.91
2023-05-01T12:52:26.520Z,99057.97
2023-05-01T12:57:28.461Z,99063.44
2023-05-01T13:02:31.403Z,99071.50
2023-05-01T13:07:33.280Z,99076.31
2023-05-01T13:12:35.223Z,99073.28
2023-05-01T13:17:37.151Z,99073.16
2023-05-01T13:22:39.228Z,99090.97
2023-05-01T13:27:41.849Z,99089.03
2023-05-01T13:32:43.538Z,99098.13
2023-05-01T13:37:45.421Z,99104.28
2023-05-01T13:42:47.197Z,99103.50
2023-05-01T13:47:49.941Z,99098.38
2023-05-01T13:52:51.876Z,99107.53
2023-05-01T13:57:53.696Z,99112.94
2023-05-01T14:02:55.723Z,99133.34
2023-05-01T14:07:58.344Z,99150.00
2023-05-01T14:13:00.131Z,99147.91
2023-05-01T14:18:05.646Z,99141.78
2023-05-01T14:23:07.579Z,99141.78
2023-05-01T14:28:09.519Z,99149.91
2023-05-01T14:33:12.513Z,99144.19
2023-05-01T14:38:14.859Z,99166.44
2023-05-01T14:43:18.009Z,99152.94
2023-05-01T14:48:23.894Z,99169.66
2023-05-01T14:53:26.293Z,99173.22
2023-05-01T14:58:28.137Z,99173.81
2023-05-01T15:03:30.213Z,99180.38
2023-05-01T15:08:32.188Z,99185.34
2023-05-01T15:13:34.107Z,99194.03
2023-05-01T15:18:36.010Z,99197.50
2023-05-01T15:23:37.813Z,99202.19
2023-05-01T15:28:39.711Z,99214.41
2023-05-01T15:33:41.660Z,99233.81
2023-05-01T15:38:43.552Z,99232.50
2023-05-01T15:43:45.421Z,99249.94
2023-05-01T15:48:47.287Z,99254.41
2023-05-01T15:53:51.591Z,99258.91
2023-05-01T15:58:53.473Z,99267.69
2023-05-01T16:03:55.510Z,99271.88
2023-05-01T16:09:00.382Z,99274.41
2023-05-01T16:14:02.445Z,99285.66
2023-05-01T16:19:04.419Z,99300.66
2023-05-01T16:24:06.446Z,99312.81
2023-05-01T16:29:08.482Z,99314.03
2023-05-01T16:34:14.318Z,99311.53
2023-05-01T16:39:17.334Z,99329.28
2023-05-01T16:44:20.092Z,99331.69
2023-05-01T16:49:25.494Z,99339.63
2023-05-01T16:54:27.632Z,99338.84
2023-05-01T16:59:29.549Z,99350.72
2023-05-01T17:04:31.435Z,99341.03
2023-05-01T17:09:33.494Z,99342.00
2023-05-01T17:14:35.434Z,99353.41
2023-05-01T17:19:37.782Z,99351.66
2023-05-01T17:24:39.759Z,99363.38
2023-05-01T17:29:41.738Z,99371.19
2023-05-01T17:34:43.612Z,99380.91
2023-05-01T17:39:45.533Z,99382.59
2023-05-01T17:44:47.403Z,99400.13
2023-05-01T17:49:49.301Z,99415.88
2023-05-01T17:54:51.141Z,99421.19
2023-05-01T17:59:53.001Z,99429.13
2023-05-01T18:04:54.861Z,99431.09
2023-05-01T18:10:00.050Z,99448.00
2023-05-01T18:15:02.264Z,99456.16
2023-05-01T18:20:06.608Z,99467.81
2023-05-01T18:25:09.070Z,99471.53
2023-05-01T18:30:11.245Z,99471.69
2023-05-01T18:35:13.142Z,99471.81
2023-05-01T18:40:15.224Z,99469.25
2023-05-01T18:45:17.154Z,99484.19
2023-05-01T18:50:19.441Z,99484.13
2023-05-01T18:55:21.374Z,99495.47
2023-05-01T19:00:23.304Z,99496.47
2023-05-01T19:05:25.327Z,99500.97
2023-05-01T19:10:27.634Z,99510.69
2023-05-01T19:15:29.568Z,99514.38
2023-05-01T19:20:31.518Z,99525.03
2023-05-01T19:25:33.482Z,99521.69
2023-05-01T19:30:35.342Z,99539.22
2023-05-01T19:35:37.360Z,99534.97
2023-05-01T19:40:39.537Z,99530.81
2023-05-01T19:45:42.351Z,99534.31
2023-05-01T19:50:44.511Z,99546.56
2023-05-01T19:55:48.019Z,99551.91
2023-05-01T20:00:50.258Z,99566.75
2023-05-01T20:05:52.284Z,99565.97
2023-05-01T20:10:54.233Z,99573.97
2023-05-01T20:15:56.304Z,99571.44
2023-05-01T20:20:58.339Z,99576.72
2023-05-01T20:26:00.727Z,99582.84
2023-05-01T20:31:02.721Z,99589.00
2023-05-01T20:36:05.675Z,99598.59
2023-05-01T20:41:07.565Z,99593.41
2023-05-01T20:46:09.515Z,99613.50
2023-05-01T20:51:11.487Z,99602.19
2023-05-01T20:56:13.342Z,99613.56
2023-05-01T21:01:16.781Z,99631.88
2023-05-01T21:06:18.784Z,99642.41
2023-05-01T21:11:20.771Z,99645.06
2023-05-01T21:16:22.800Z,99662.53
2023-05-01T21:21:24.785Z,99669.53
2023-05-01T21:26:26.714Z,99683.50
2023-05-01T21:31:30.510Z,99687.00
2023-05-01T21:36:32.648Z,99692.22
2023-05-01T21:41:34.534Z,99700.09
2023-05-01T21:46:36.495Z,99709.66
2023-05-01T21:51:39.265Z,99713.19
2023-05-01T21:56:41.200Z,99714.94
2023-05-01T22:01:43.124Z,99723.66
2023-05-01T22:06:45.148Z,99733.19
2023-05-01T22:11:47.181Z,99736.72
2023-05-01T22:16:49.230Z,99747.13
2023-05-01T22:21:51.151Z,99748.88
2023-05-01T22:26:53.086Z,99751.50
2023-05-01T22:31:55.057Z,99761.94
2023-05-01T22:36:57.041Z,99768.91
2023-05-01T22:41:59.084Z,99778.47
2023-05-01T22:47:01.088Z,99788.91
2023-05-01T22:52:03.260Z,99793.25
2023-05-01T22:57:05.220Z,99795.84
2023-05-01T23:02:07.258Z,99795.84
2023-05-01T23:07:09.206Z,99798.47
2023-05-01T23:12:16.979Z,99797.59
2023-05-01T23:17:19.044Z,99814.97
2023-05-01T23:22:20.902Z,99814.97
2023-05-01T23:27:22.867Z,99819.31
2023-05-01T23:32:29.023Z,99824.50
2023-05-01T23:37:31.065Z,99825.38
2023-05-01T23:42:33.011Z,99838.38
2023-05-01T23:47:34.990Z,99846.19
2023-05-01T23:52:36.955Z,99846.19
2023-05-01T23:57:38.874Z,99858.31
